Terminal Aerodrome Forecast
Issued by NWS

Home | Current Version | Previous Version | Text Only | Print | Product List | Glossary On
Versions: 1 2 3 4 5 6 7 8 9 10 11 12 13
000
FTUS46 KSEW 062000 AAA
TAFBFI
TAF AMD
KBFI 062000Z 0620/0718 18006KT P6SM BKN200
     FM070000 VRB04KT P6SM SCT200
     FM071400 18005KT P6SM SCT009 SCT200
     FM071700 VRB04KT P6SM SCT200=

USA.gov is the U.S. government's official web portal to all federal, state and local government web resources and services.